Voyager Of The Seas — C6SE5 — position and weather

sailwx.info

Track history (hours):
 
Tides and Currents Weather Stations Pressure Air Temp Water Temp Dewpoint Dewpoint Depression Visibility Wind Speed Wind Dir Waves Ship Positions

Voyager Of The Seas

Operator: Royal Caribbean Cruises Ltd

Last reported at 2016-Apr-30 02:33 UTC. Time now 2016-Apr-30 03:13 UTC.
Position N 01°16' E 103°52'.

Type: Passenger vessel. MMSI: 311317000.

Date/timePositionNaut miles runAvg speedWind from/ knotsBaromVisibWave heightAir tempDewpointWater temp
2016-Apr-30 02:33N 01°16' E 103°52'0 0.0
2016-Apr-30 01:34N 01°16' E 103°52'0 0.0
2016-Apr-30 00:33N 01°16' E 103°52'0 0.0
2016-Apr-29 23:33N 01°16' E 103°52'0 0.0
2016-Apr-29 22:33N 01°16' E 103°52'0 0.0
2016-Apr-29 21:33N 01°16' E 103°52'0 0.0
2016-Apr-29 20:34N 01°16' E 103°52'0 0.0
2016-Apr-29 19:33N 01°16' E 103°52'0 0.0
2016-Apr-29 18:34N 01°16' E 103°52'0 0.0
2016-Apr-29 17:34N 01°16' E 103°52'0 0.0
2016-Apr-29 16:34N 01°16' E 103°52'0 0.0
2016-Apr-29 15:33N 01°16' E 103°52'0 0.0
2016-Apr-29 14:33N 01°16' E 103°52'0 0.0
2016-Apr-29 13:34N 01°16' E 103°52'0 0.0
2016-Apr-29 12:33N 01°16' E 103°52'0 0.0
2016-Apr-29 11:33N 01°16' E 103°52'0 0.0
2016-Apr-29 10:33N 01°16' E 103°52'0 0.0
2016-Apr-29 09:33N 01°16' E 103°52'0 0.0
2016-Apr-29 08:33N 01°16' E 103°52'0 0.0
2016-Apr-29 07:33N 01°16' E 103°52'0 0.0
2016-Apr-29 06:34N 01°16' E 103°52'0 0.0
2016-Apr-29 05:33N 01°16' E 103°52'0 0.0
2016-Apr-29 04:33N 01°16' E 103°52'0 0.0
2016-Apr-29 03:33N 01°16' E 103°52'0 0.0
2016-Apr-29 02:31N 01°16' E 103°52'0 0.0
2016-Apr-29 01:31N 01°16' E 103°52'4 4.7
2016-Apr-29 00:33N 01°11' E 103°51'1313.4
2016-Apr-28 23:33N 01°04' E 103°40'1212.3
2016-Apr-28 22:33N 01°08' E 103°29'17 0.5
2016-Apr-27 09:26N 01°10' E 103°46'  
2016-Apr-23 07:34S 12°28' E 130°51'0 0.2
2016-Apr-23 06:33S 12°28' E 130°51'0 0.0
2016-Apr-23 04:04S 12°28' E 130°51'0 0.1
2016-Apr-23 03:33S 12°28' E 130°51'0 0.1
2016-Apr-23 02:33S 12°28' E 130°51'0 0.0
2016-Apr-23 01:33S 12°28' E 130°51'0 0.0
2016-Apr-23 00:33S 12°28' E 130°51'0 0.0
2016-Apr-22 23:32S 12°28' E 130°51'0 0.0
2016-Apr-22 22:31S 12°28' E 130°51'1 0.6
2016-Apr-22 21:33S 12°29' E 130°50'  
Track history (hours):
 
Tides and Currents Weather Stations Pressure Air Temp Water Temp Dewpoint Dewpoint Depression Visibility Wind Speed Wind Dir Waves Ship Positions

Voyager Of The Seas

Operator: Royal Caribbean Cruises Ltd

Last reported at 2016-Apr-30 02:33 UTC. Time now 2016-Apr-30 03:13 UTC.
Position N 01°16' E 103°52'.

Type: Passenger vessel. MMSI: 311317000.

Date/timePositionNaut miles runAvg speedWind from/ knotsBaromVisibWave heightAir tempDewpointWater temp
2016-Apr-30 02:33N 01°16' E 103°52'0 0.0
2016-Apr-30 01:34N 01°16' E 103°52'0 0.0
2016-Apr-30 00:33N 01°16' E 103°52'0 0.0
2016-Apr-29 23:33N 01°16' E 103°52'0 0.0
2016-Apr-29 22:33N 01°16' E 103°52'0 0.0
2016-Apr-29 21:33N 01°16' E 103°52'0 0.0
2016-Apr-29 20:34N 01°16' E 103°52'0 0.0
2016-Apr-29 19:33N 01°16' E 103°52'0 0.0
2016-Apr-29 18:34N 01°16' E 103°52'0 0.0
2016-Apr-29 17:34N 01°16' E 103°52'0 0.0
2016-Apr-29 16:34N 01°16' E 103°52'0 0.0
2016-Apr-29 15:33N 01°16' E 103°52'0 0.0
2016-Apr-29 14:33N 01°16' E 103°52'0 0.0
2016-Apr-29 13:34N 01°16' E 103°52'0 0.0
2016-Apr-29 12:33N 01°16' E 103°52'0 0.0
2016-Apr-29 11:33N 01°16' E 103°52'0 0.0
2016-Apr-29 10:33N 01°16' E 103°52'0 0.0
2016-Apr-29 09:33N 01°16' E 103°52'0 0.0
2016-Apr-29 08:33N 01°16' E 103°52'0 0.0
2016-Apr-29 07:33N 01°16' E 103°52'0 0.0
2016-Apr-29 06:34N 01°16' E 103°52'0 0.0
2016-Apr-29 05:33N 01°16' E 103°52'0 0.0
2016-Apr-29 04:33N 01°16' E 103°52'0 0.0
2016-Apr-29 03:33N 01°16' E 103°52'0 0.0
2016-Apr-29 02:31N 01°16' E 103°52'0 0.0
2016-Apr-29 01:31N 01°16' E 103°52'4 4.7
2016-Apr-29 00:33N 01°11' E 103°51'1313.4
2016-Apr-28 23:33N 01°04' E 103°40'1212.3
2016-Apr-28 22:33N 01°08' E 103°29'17 0.5
2016-Apr-27 09:26N 01°10' E 103°46'  
2016-Apr-23 07:34S 12°28' E 130°51'0 0.2
2016-Apr-23 06:33S 12°28' E 130°51'0 0.0
2016-Apr-23 04:04S 12°28' E 130°51'0 0.1
2016-Apr-23 03:33S 12°28' E 130°51'0 0.1
2016-Apr-23 02:33S 12°28' E 130°51'0 0.0
2016-Apr-23 01:33S 12°28' E 130°51'0 0.0
2016-Apr-23 00:33S 12°28' E 130°51'0 0.0
2016-Apr-22 23:32S 12°28' E 130°51'0 0.0
2016-Apr-22 22:31S 12°28' E 130°51'1 0.6
2016-Apr-22 21:33S 12°29' E 130°50'  

Dump ship's entire track history